createdAt,value
2022-11-12T00:00:59.413Z,60.62
2022-11-12T00:03:20.496Z,60.31
2022-11-12T00:05:41.116Z,60.72
2022-11-12T00:08:01.711Z,60.67
2022-11-12T00:10:23.141Z,60.72
2022-11-12T00:12:44.303Z,60.77
2022-11-12T00:15:05.501Z,60.63
2022-11-12T00:17:25.923Z,60.56
2022-11-12T00:19:46.732Z,60.41
2022-11-12T00:22:07.059Z,61.24
2022-11-12T00:24:28.112Z,61.11
2022-11-12T00:26:48.824Z,60.92
2022-11-12T00:29:09.915Z,61.20
2022-11-12T00:31:32.092Z,61.51
2022-11-12T00:33:52.849Z,61.37
2022-11-12T00:36:13.297Z,61.15
2022-11-12T00:38:36.395Z,61.89
2022-11-12T00:41:00.460Z,61.47
2022-11-12T00:43:21.209Z,61.60
2022-11-12T00:45:43.610Z,61.70
2022-11-12T00:48:04.687Z,61.24
2022-11-12T00:50:25.718Z,61.63
2022-11-12T00:52:46.928Z,61.38
2022-11-12T00:55:07.982Z,61.50
2022-11-12T00:57:28.679Z,61.26
2022-11-12T00:59:49.532Z,61.22
2022-11-12T01:02:10.819Z,61.22
2022-11-12T01:04:31.769Z,60.99
2022-11-12T01:06:52.820Z,61.09
2022-11-12T01:09:13.397Z,61.07
2022-11-12T01:11:34.129Z,61.22
2022-11-12T01:14:07.580Z,61.34
2022-11-12T01:17:30.468Z,61.42
2022-11-12T01:19:51.263Z,61.13
2022-11-12T01:22:12.165Z,61.09
2022-11-12T01:24:32.756Z,60.97
2022-11-12T01:26:53.691Z,61.06
2022-11-12T01:29:14.381Z,60.98
2022-11-12T01:31:37.135Z,60.79
2022-11-12T01:34:01.134Z,61.03
2022-11-12T01:36:22.666Z,60.79
2022-11-12T01:39:09.110Z,61.00
2022-11-12T01:41:33.715Z,60.86
2022-11-12T01:44:11.038Z,61.02
2022-11-12T01:46:31.610Z,60.81
2022-11-12T01:49:03.166Z,60.50
2022-11-12T01:51:30.389Z,61.17
2022-11-12T01:53:57.241Z,61.12
2022-11-12T01:56:23.073Z,61.04
2022-11-12T01:59:33.999Z,61.51
2022-11-12T02:01:54.454Z,61.57
2022-11-12T02:04:15.638Z,61.22
2022-11-12T02:06:37.959Z,61.07
2022-11-12T02:08:58.694Z,61.08
2022-11-12T02:11:21.716Z,61.01
2022-11-12T02:13:58.239Z,60.83
2022-11-12T02:16:18.799Z,60.88
2022-11-12T02:18:39.622Z,60.89
2022-11-12T02:21:06.112Z,61.07
2022-11-12T02:23:26.714Z,60.58
2022-11-12T02:25:47.376Z,60.59
2022-11-12T02:28:08.815Z,60.62
2022-11-12T02:30:34.069Z,60.84
2022-11-12T02:32:54.886Z,60.70
2022-11-12T02:35:15.709Z,60.85
2022-11-12T02:37:36.354Z,60.87
2022-11-12T02:39:56.992Z,60.73
2022-11-12T02:42:17.138Z,61.16
2022-11-12T02:44:37.724Z,61.41
2022-11-12T02:51:04.359Z,61.17
2022-11-12T02:53:25.029Z,60.91
2022-11-12T02:55:45.840Z,60.71
2022-11-12T02:58:06.383Z,60.58
2022-11-12T03:00:26.864Z,60.81
2022-11-12T03:02:59.377Z,60.73
2022-11-12T03:05:20.109Z,60.65
2022-11-12T03:07:40.803Z,60.63
2022-11-12T03:10:01.870Z,60.40
2022-11-12T03:12:25.068Z,60.39
2022-11-12T03:14:48.367Z,60.77
2022-11-12T03:17:11.705Z,60.44
2022-11-12T03:19:32.151Z,60.35
2022-11-12T03:21:52.583Z,60.45
2022-11-12T03:24:13.306Z,60.51
2022-11-12T03:26:35.946Z,60.41
2022-11-12T03:28:56.751Z,60.67
2022-11-12T03:31:17.077Z,60.45
2022-11-12T03:33:40.741Z,60.06
2022-11-12T03:36:01.903Z,60.40
2022-11-12T03:38:23.870Z,60.21
2022-11-12T03:40:44.613Z,60.31
2022-11-12T03:43:05.096Z,60.32
2022-11-12T03:45:27.105Z,60.17
2022-11-12T03:47:50.299Z,60.30
2022-11-12T03:50:12.976Z,60.30
2022-11-12T03:52:34.078Z,60.81
2022-11-12T03:54:54.875Z,60.97
2022-11-12T03:57:15.387Z,60.80
2022-11-12T03:59:36.049Z,60.88
2022-11-12T04:01:56.887Z,61.00
2022-11-12T04:04:17.535Z,60.73
2022-11-12T04:06:56.429Z,60.85
2022-11-12T04:09:17.165Z,61.29
2022-11-12T04:11:37.640Z,60.84
2022-11-12T04:13:59.100Z,60.90
2022-11-12T04:16:40.606Z,60.95
2022-11-12T04:19:21.869Z,60.88
2022-11-12T04:21:51.358Z,61.27
2022-11-12T04:24:32.165Z,61.43
2022-11-12T04:26:53.082Z,61.25
2022-11-12T04:29:45.689Z,61.02
2022-11-12T04:32:06.120Z,61.08
2022-11-12T04:34:29.479Z,61.07
2022-11-12T04:36:50.206Z,61.63
2022-11-12T04:39:11.045Z,61.17
2022-11-12T04:41:50.429Z,61.69
2022-11-12T04:44:29.607Z,61.50
2022-11-12T04:46:50.341Z,61.49
2022-11-12T04:49:11.069Z,60.96
2022-11-12T04:51:50.067Z,61.75
2022-11-12T04:54:10.860Z,61.69
2022-11-12T04:56:33.036Z,61.33
2022-11-12T04:58:53.819Z,61.64
2022-11-12T05:01:14.330Z,61.38
2022-11-12T05:03:35.842Z,61.41
2022-11-12T05:06:04.611Z,61.92
2022-11-12T05:08:25.273Z,61.67
2022-11-12T05:10:46.214Z,61.95
2022-11-12T05:13:06.681Z,61.60
2022-11-12T05:15:27.043Z,61.57
2022-11-12T05:17:47.457Z,61.28
2022-11-12T05:20:08.749Z,61.37
2022-11-12T05:22:43.428Z,61.17
2022-11-12T05:25:06.230Z,60.87
2022-11-12T05:27:26.914Z,60.74
2022-11-12T05:29:48.115Z,60.64
2022-11-12T05:32:11.442Z,60.56
2022-11-12T05:34:32.076Z,60.71
2022-11-12T05:36:53.201Z,60.96
2022-11-12T05:39:13.882Z,61.04
2022-11-12T05:41:51.406Z,60.96
2022-11-12T05:44:15.248Z,61.18
2022-11-12T05:46:36.127Z,61.19
2022-11-12T05:48:57.562Z,61.10
2022-11-12T05:51:18.199Z,61.18
2022-11-12T05:53:38.857Z,61.25
2022-11-12T05:56:03.356Z,60.94
2022-11-12T05:58:24.272Z,61.27
2022-11-12T06:00:44.807Z,61.14
2022-11-12T06:03:06.204Z,61.66
2022-11-12T06:05:27.128Z,61.72
2022-11-12T06:07:47.888Z,62.17
2022-11-12T06:10:09.031Z,62.08
2022-11-12T06:12:29.707Z,61.73
2022-11-12T06:14:50.100Z,61.59
2022-11-12T06:17:10.642Z,61.52
2022-11-12T06:19:31.609Z,61.08
2022-11-12T06:21:52.426Z,61.20
2022-11-12T06:24:13.673Z,60.89
2022-11-12T06:26:33.995Z,61.04
2022-11-12T06:28:55.099Z,60.85
2022-11-12T06:31:16.714Z,60.99
2022-11-12T06:33:37.042Z,60.96
2022-11-12T06:36:03.432Z,60.88
2022-11-12T06:38:24.387Z,60.83
2022-11-12T06:40:45.174Z,60.58
2022-11-12T06:43:05.797Z,60.43
2022-11-12T06:45:26.566Z,60.05
2022-11-12T06:47:50.337Z,60.35
2022-11-12T06:50:10.739Z,60.25
2022-11-12T06:52:31.155Z,60.23
2022-11-12T06:54:53.309Z,59.76
2022-11-12T06:57:13.857Z,59.71
2022-11-12T06:59:35.050Z,59.82
2022-11-12T07:01:55.488Z,59.50
2022-11-12T07:04:16.031Z,59.18
2022-11-12T07:06:36.981Z,59.26
2022-11-12T07:08:57.543Z,58.83
2022-11-12T07:11:19.604Z,58.50
2022-11-12T07:13:40.090Z,58.44
2022-11-12T07:16:02.981Z,58.48
2022-11-12T07:18:24.205Z,57.75
2022-11-12T07:20:45.297Z,57.92
2022-11-12T07:23:09.217Z,57.89
2022-11-12T07:25:29.479Z,56.63
2022-11-12T07:27:50.336Z,57.12
2022-11-12T07:30:11.468Z,57.28
2022-11-12T07:32:32.257Z,57.08
2022-11-12T07:34:52.929Z,56.99
2022-11-12T07:37:13.772Z,56.80
2022-11-12T07:39:34.507Z,56.47
2022-11-12T07:41:55.245Z,55.78
2022-11-12T07:44:16.082Z,56.04
2022-11-12T07:46:37.356Z,56.00
2022-11-12T07:48:58.247Z,55.44
2022-11-12T07:51:20.077Z,55.20
2022-11-12T07:53:41.422Z,54.96
2022-11-12T07:56:05.928Z,54.73
2022-11-12T07:58:30.523Z,53.96
2022-11-12T08:00:52.474Z,53.95
2022-11-12T08:03:13.257Z,53.27
2022-11-12T08:05:34.830Z,52.80
2022-11-12T08:07:58.593Z,52.05
2022-11-12T08:10:19.253Z,52.88
2022-11-12T08:12:40.039Z,52.02
2022-11-12T08:15:00.951Z,52.01
2022-11-12T08:17:21.662Z,52.07
2022-11-12T08:19:42.451Z,52.27
2022-11-12T08:22:03.061Z,53.15
2022-11-12T08:24:23.969Z,53.56
2022-11-12T08:26:44.650Z,53.13
2022-11-12T08:29:08.677Z,52.69
2022-11-12T08:31:29.517Z,53.16
2022-11-12T08:33:50.921Z,52.74
2022-11-12T08:36:14.271Z,52.42
2022-11-12T08:38:35.411Z,52.06
2022-11-12T08:40:58.417Z,52.52
2022-11-12T08:43:19.321Z,51.57
2022-11-12T08:45:41.536Z,51.91
2022-11-12T08:48:03.412Z,52.47
2022-11-12T08:50:24.368Z,52.72
2022-11-12T08:52:45.047Z,52.06
2022-11-12T08:55:06.903Z,52.44
2022-11-12T08:57:27.748Z,52.28
2022-11-12T08:59:48.432Z,52.16
2022-11-12T09:02:14.284Z,52.04
2022-11-12T09:04:34.835Z,51.68
2022-11-12T09:06:55.213Z,51.22
2022-11-12T09:09:15.914Z,51.24
2022-11-12T09:11:36.591Z,51.40
2022-11-12T09:13:57.610Z,51.12
2022-11-12T09:16:18.229Z,51.60
2022-11-12T09:18:38.523Z,51.05
2022-11-12T09:21:01.110Z,50.63
2022-11-12T09:23:21.668Z,51.00
2022-11-12T09:25:42.787Z,51.33
2022-11-12T09:28:17.208Z,50.21
2022-11-12T09:30:41.750Z,49.54
2022-11-12T09:33:02.720Z,50.12
2022-11-12T09:35:23.514Z,50.57
2022-11-12T09:37:44.670Z,50.24
2022-11-12T09:40:07.465Z,50.29
2022-11-12T09:42:28.521Z,50.14
2022-11-12T09:45:03.188Z,49.46
2022-11-12T09:47:38.887Z,50.38
2022-11-12T09:50:12.487Z,50.55
2022-11-12T09:53:05.217Z,51.05
2022-11-12T09:55:37.985Z,50.60
2022-11-12T09:57:58.617Z,51.09
2022-11-12T10:00:21.815Z,50.51
2022-11-12T10:02:57.463Z,50.37
2022-11-12T10:05:36.448Z,51.20
2022-11-12T10:08:03.404Z,49.67
2022-11-12T10:10:46.364Z,49.29
2022-11-12T10:13:12.825Z,49.93
2022-11-12T10:15:51.671Z,50.53
2022-11-12T10:18:33.784Z,49.35
2022-11-12T10:21:20.071Z,49.20
2022-11-12T10:23:49.832Z,49.36
2022-11-12T10:26:19.067Z,49.25
2022-11-12T10:28:47.888Z,47.81
2022-11-12T10:31:13.823Z,48.67
2022-11-12T10:33:34.723Z,49.12
2022-11-12T10:35:57.340Z,49.25
2022-11-12T10:38:26.204Z,49.31
2022-11-12T10:40:47.202Z,49.64
2022-11-12T10:43:17.153Z,49.73
2022-11-12T10:45:41.802Z,49.48
2022-11-12T10:48:02.596Z,49.36
2022-11-12T10:50:36.817Z,49.08
2022-11-12T10:53:03.104Z,48.19
2022-11-12T10:55:31.409Z,48.89
2022-11-12T10:58:15.166Z,47.65
2022-11-12T11:00:53.222Z,47.50
2022-11-12T11:03:25.460Z,48.54
2022-11-12T11:06:15.585Z,47.99
2022-11-12T11:08:47.880Z,49.09
2022-11-12T11:11:20.455Z,48.97
2022-11-12T11:13:41.257Z,48.90
2022-11-12T11:16:07.937Z,48.90
2022-11-12T11:18:35.401Z,48.73
2022-11-12T11:21:06.771Z,49.43
2022-11-12T11:23:36.396Z,48.88
2022-11-12T11:26:07.605Z,48.72
2022-11-12T11:28:55.698Z,46.80
2022-11-12T11:31:26.879Z,48.03
2022-11-12T11:34:09.839Z,47.34
2022-11-12T11:40:21.663Z,46.67
2022-11-12T11:43:03.418Z,47.72
2022-11-12T11:45:30.329Z,46.67
2022-11-12T11:48:02.606Z,46.85
2022-11-12T11:50:28.705Z,46.20
2022-11-12T11:53:17.390Z,46.71
2022-11-12T11:55:46.335Z,47.14
2022-11-12T11:58:33.243Z,46.75
2022-11-12T12:01:02.925Z,46.92
2022-11-12T12:03:36.275Z,47.03
2022-11-12T12:06:12.993Z,47.49
2022-11-12T12:09:03.222Z,47.29
2022-11-12T12:11:47.453Z,46.91
2022-11-12T12:14:17.066Z,47.07
2022-11-12T12:16:58.718Z,45.79
2022-11-12T12:19:53.654Z,45.40
2022-11-12T12:22:19.613Z,47.02
2022-11-12T12:24:49.513Z,46.62
2022-11-12T12:27:16.567Z,46.37
2022-11-12T12:29:59.638Z,46.42
2022-11-12T12:32:41.919Z,46.47
2022-11-12T12:35:15.139Z,46.83
2022-11-12T12:37:43.870Z,45.75
2022-11-12T12:40:18.828Z,46.36
2022-11-12T12:42:48.911Z,45.42
2022-11-12T12:45:36.325Z,45.27
2022-11-12T12:47:58.697Z,46.02
2022-11-12T12:50:21.659Z,45.80
2022-11-12T12:53:05.671Z,45.79
2022-11-12T12:55:40.489Z,45.07
2022-11-12T12:58:01.443Z,46.59
2022-11-12T13:00:34.967Z,45.71
2022-11-12T13:02:56.552Z,46.40
2022-11-12T13:05:46.355Z,45.99
2022-11-12T13:08:14.534Z,45.55
2022-11-12T13:10:49.474Z,45.25
2022-11-12T13:13:19.515Z,45.64
2022-11-12T13:15:46.741Z,44.91
2022-11-12T13:18:14.239Z,45.13
2022-11-12T13:20:41.005Z,45.11
2022-11-12T13:23:02.414Z,45.14
2022-11-12T13:25:24.217Z,45.29
2022-11-12T13:27:44.774Z,44.96
2022-11-12T13:30:25.179Z,45.67
2022-11-12T13:32:48.812Z,43.11
2022-11-12T13:35:22.921Z,43.67
2022-11-12T13:38:09.493Z,44.62
2022-11-12T13:44:17.856Z,44.25
2022-11-12T13:46:38.739Z,45.34
2022-11-12T13:49:10.479Z,45.48
2022-11-12T13:51:52.129Z,45.39
2022-11-12T13:55:14.952Z,45.56
2022-11-12T13:57:35.760Z,46.30
2022-11-12T14:00:18.971Z,46.49
2022-11-12T14:02:43.462Z,46.77
2022-11-12T14:05:05.077Z,47.16
2022-11-12T14:07:37.724Z,46.70
2022-11-12T14:10:17.662Z,46.99
2022-11-12T14:12:56.849Z,47.30
2022-11-12T14:15:32.694Z,46.86
2022-11-12T14:18:09.304Z,47.37
2022-11-12T14:20:41.281Z,47.58
2022-11-12T14:23:20.118Z,47.78
2022-11-12T14:25:55.621Z,48.08
2022-11-12T14:28:29.196Z,48.24
2022-11-12T14:30:50.169Z,48.01
2022-11-12T14:33:11.426Z,48.08
2022-11-12T14:35:37.841Z,48.58
2022-11-12T14:38:10.041Z,48.04
2022-11-12T14:40:33.946Z,48.55
2022-11-12T14:42:55.250Z,48.50
2022-11-12T14:45:17.515Z,48.19
2022-11-12T14:47:38.823Z,47.94
2022-11-12T14:49:59.684Z,48.25
2022-11-12T14:52:29.318Z,48.59
2022-11-12T14:54:55.073Z,48.25
2022-11-12T14:57:25.253Z,48.71
2022-11-12T14:59:46.276Z,48.50
2022-11-12T15:05:01.037Z,48.75
2022-11-12T15:07:24.083Z,48.94
2022-11-12T15:09:44.607Z,48.97
2022-11-12T15:12:12.734Z,49.23
2022-11-12T15:14:34.521Z,49.14
2022-11-12T15:16:55.155Z,49.02
2022-11-12T15:19:15.815Z,49.23
2022-11-12T15:21:36.809Z,49.49
2022-11-12T15:24:29.988Z,49.53
2022-11-12T15:26:53.314Z,49.43
2022-11-12T15:29:28.070Z,49.54
2022-11-12T15:31:50.454Z,49.55
2022-11-12T15:34:28.093Z,50.16
2022-11-12T15:36:49.109Z,49.60
2022-11-12T15:39:41.365Z,50.14
2022-11-12T15:45:57.388Z,50.08
2022-11-12T15:48:19.138Z,49.78
2022-11-12T15:50:39.650Z,50.04
2022-11-12T15:53:00.179Z,49.88
2022-11-12T15:55:21.374Z,50.01
2022-11-12T15:57:52.210Z,49.74
2022-11-12T16:00:19.354Z,49.85
2022-11-12T16:02:39.570Z,50.09
2022-11-12T16:04:59.852Z,50.37
2022-11-12T16:07:20.536Z,49.88
2022-11-12T16:09:41.029Z,50.27
2022-11-12T16:12:02.305Z,50.39
2022-11-12T16:14:25.026Z,50.42
2022-11-12T16:16:45.767Z,50.06
2022-11-12T16:19:14.384Z,50.67
2022-11-12T16:21:34.747Z,50.40
2022-11-12T16:23:55.375Z,49.96
2022-11-12T16:26:30.733Z,50.23
2022-11-12T16:28:51.403Z,50.33
2022-11-12T16:31:11.748Z,50.39
2022-11-12T16:33:35.584Z,50.61
2022-11-12T16:35:57.887Z,51.14
2022-11-12T16:38:18.315Z,50.88
2022-11-12T16:40:38.786Z,51.11
2022-11-12T16:42:59.472Z,50.79
2022-11-12T16:45:22.475Z,50.83
2022-11-12T16:47:45.863Z,50.82
2022-11-12T16:50:06.800Z,50.98
2022-11-12T16:52:27.928Z,50.68
2022-11-12T16:54:48.411Z,50.64
2022-11-12T16:57:11.378Z,50.76
2022-11-12T16:59:31.959Z,50.77
2022-11-12T17:01:52.833Z,50.60
2022-11-12T17:04:13.188Z,50.88
2022-11-12T17:06:41.364Z,50.78
2022-11-12T17:09:01.784Z,50.68
2022-11-12T17:11:22.779Z,50.67
2022-11-12T17:13:43.966Z,50.96
2022-11-12T17:16:06.767Z,50.58
2022-11-12T17:18:27.492Z,50.59
2022-11-12T17:24:42.798Z,50.85
2022-11-12T17:27:03.443Z,50.82
2022-11-12T17:29:23.973Z,50.91
2022-11-12T17:31:49.271Z,50.66
2022-11-12T17:34:10.183Z,50.89
2022-11-12T17:36:30.497Z,50.68
2022-11-12T17:38:58.838Z,50.90
2022-11-12T17:41:19.381Z,50.99
2022-11-12T17:43:40.890Z,50.72
2022-11-12T17:46:01.507Z,50.98
2022-11-12T17:48:23.418Z,50.99
2022-11-12T17:50:44.378Z,50.98
2022-11-12T17:53:05.427Z,50.92
2022-11-12T17:55:26.037Z,51.61
2022-11-12T17:57:49.202Z,52.46
2022-11-12T18:00:10.635Z,51.97
2022-11-12T18:02:31.321Z,52.20
2022-11-12T18:04:51.410Z,52.87
2022-11-12T18:07:12.446Z,53.26
2022-11-12T18:09:33.072Z,52.79
2022-11-12T18:11:54.982Z,53.30
2022-11-12T18:14:16.215Z,53.03
2022-11-12T18:16:37.065Z,52.86
2022-11-12T18:18:58.242Z,52.78
2022-11-12T18:21:40.484Z,53.29
2022-11-12T18:24:01.135Z,53.07
2022-11-12T18:26:22.305Z,52.81
2022-11-12T18:28:43.163Z,52.64
2022-11-12T18:31:08.701Z,52.91
2022-11-12T18:33:30.199Z,52.65
2022-11-12T18:36:03.978Z,52.46
2022-11-12T18:38:24.904Z,52.53
2022-11-12T18:40:45.611Z,52.34
2022-11-12T18:43:06.212Z,52.47
2022-11-12T18:45:28.683Z,52.41
2022-11-12T18:47:52.359Z,52.56
2022-11-12T18:50:13.143Z,52.75
2022-11-12T18:52:33.699Z,52.86
2022-11-12T18:54:54.443Z,52.92
2022-11-12T18:57:15.177Z,53.24
2022-11-12T18:59:35.841Z,53.41
2022-11-12T19:01:59.765Z,54.57
2022-11-12T19:04:20.548Z,54.29
2022-11-12T19:06:41.504Z,54.05
2022-11-12T19:09:03.470Z,54.20
2022-11-12T19:11:24.118Z,54.72
2022-11-12T19:13:44.921Z,54.51
2022-11-12T19:16:07.691Z,55.08
2022-11-12T19:18:28.584Z,54.90
2022-11-12T19:20:49.504Z,55.52
2022-11-12T19:23:10.506Z,55.34
2022-11-12T19:25:30.825Z,55.45
2022-11-12T19:27:51.346Z,54.78
2022-11-12T19:30:12.720Z,54.74
2022-11-12T19:32:33.512Z,54.63
2022-11-12T19:34:53.917Z,54.03
2022-11-12T19:39:54.863Z,54.00
2022-11-12T19:42:15.534Z,53.71
2022-11-12T19:44:36.260Z,53.70
2022-11-12T19:46:57.001Z,53.71
2022-11-12T19:49:17.524Z,53.72
2022-11-12T19:51:37.915Z,53.75
2022-11-12T19:53:58.377Z,54.01
2022-11-12T19:56:21.249Z,53.80
2022-11-12T19:58:45.284Z,53.85
2022-11-12T20:01:08.018Z,54.08
2022-11-12T20:03:30.050Z,53.85
2022-11-12T20:05:52.476Z,53.77
2022-11-12T20:08:13.066Z,53.73
2022-11-12T20:10:33.672Z,53.98
2022-11-12T20:12:55.118Z,53.58
2022-11-12T20:15:17.803Z,53.56
2022-11-12T20:17:39.269Z,53.64
2022-11-12T20:20:00.743Z,53.37
2022-11-12T20:22:21.151Z,53.27
2022-11-12T20:24:41.928Z,53.66
2022-11-12T20:27:02.925Z,53.81
2022-11-12T20:29:23.496Z,53.76
2022-11-12T20:31:43.966Z,53.80
2022-11-12T20:34:04.626Z,53.68
2022-11-12T20:36:25.293Z,53.49
2022-11-12T20:38:47.531Z,53.33
2022-11-12T20:41:14.298Z,53.84
2022-11-12T20:43:35.842Z,54.55
2022-11-12T20:45:56.600Z,55.00
2022-11-12T20:48:17.046Z,55.12
2022-11-12T20:50:37.681Z,55.37
2022-11-12T20:52:58.429Z,55.80
2022-11-12T20:55:19.648Z,55.87
2022-11-12T20:57:40.249Z,55.92
2022-11-12T21:00:00.643Z,55.67
2022-11-12T21:02:21.257Z,55.11
2022-11-12T21:04:45.054Z,55.21
2022-11-12T21:07:06.287Z,55.12
2022-11-12T21:09:26.921Z,55.15
2022-11-12T21:11:47.216Z,55.71
2022-11-12T21:14:08.412Z,55.48
2022-11-12T21:16:28.904Z,55.70
2022-11-12T21:18:49.926Z,55.96
2022-11-12T21:21:12.850Z,55.76
2022-11-12T21:23:38.245Z,55.38
2022-11-12T21:26:08.859Z,55.08
2022-11-12T21:28:29.763Z,54.88
2022-11-12T21:30:52.511Z,54.77
2022-11-12T21:33:13.179Z,54.62
2022-11-12T21:35:33.846Z,54.53
2022-11-12T21:37:54.523Z,54.43
2022-11-12T21:40:16.907Z,54.54
2022-11-12T21:42:39.387Z,54.26
2022-11-12T21:45:02.256Z,54.36
2022-11-12T21:47:22.942Z,54.41
2022-11-12T21:49:43.677Z,54.12
2022-11-12T21:52:04.727Z,54.35
2022-11-12T21:54:25.343Z,54.42
2022-11-12T21:56:45.765Z,54.66
2022-11-12T21:59:06.500Z,54.37
2022-11-12T22:01:33.495Z,54.33
2022-11-12T22:03:55.478Z,54.63
2022-11-12T22:06:16.612Z,55.15
2022-11-12T22:08:37.834Z,55.71
2022-11-12T22:11:06.481Z,55.90
2022-11-12T22:13:27.764Z,55.39
2022-11-12T22:15:50.769Z,55.12
2022-11-12T22:18:11.646Z,54.98
2022-11-12T22:20:32.181Z,54.64
2022-11-12T22:22:52.860Z,54.62
2022-11-12T22:25:13.901Z,54.76
2022-11-12T22:27:34.190Z,54.47
2022-11-12T22:29:54.496Z,54.37
2022-11-12T22:32:15.259Z,55.27
2022-11-12T22:34:36.080Z,55.08
2022-11-12T22:36:57.095Z,55.30
2022-11-12T22:39:17.754Z,55.45
2022-11-12T22:41:38.800Z,55.24
2022-11-12T22:44:01.558Z,55.14
2022-11-12T22:46:24.434Z,55.72
2022-11-12T22:48:45.291Z,55.58
2022-11-12T22:51:08.758Z,55.59
2022-11-12T22:53:29.874Z,55.79
2022-11-12T22:55:50.912Z,55.44
2022-11-12T22:58:12.149Z,55.78
2022-11-12T23:00:32.960Z,55.50
2022-11-12T23:02:53.795Z,56.00
2022-11-12T23:05:14.333Z,56.09
2022-11-12T23:07:35.173Z,56.58
2022-11-12T23:09:55.807Z,56.71
2022-11-12T23:12:16.142Z,56.48
2022-11-12T23:14:36.898Z,56.46
2022-11-12T23:17:02.440Z,56.75
2022-11-12T23:19:23.432Z,56.09
2022-11-12T23:21:44.620Z,56.52
2022-11-12T23:24:05.521Z,56.45
2022-11-12T23:26:31.203Z,56.32
2022-11-12T23:28:52.429Z,56.23
2022-11-12T23:31:18.825Z,56.34
2022-11-12T23:33:39.302Z,56.35
2022-11-12T23:36:08.054Z,57.15
2022-11-12T23:38:30.915Z,56.78
2022-11-12T23:40:56.232Z,56.79
2022-11-12T23:43:16.882Z,56.27
2022-11-12T23:45:40.983Z,56.53
2022-11-12T23:48:01.623Z,56.18
2022-11-12T23:50:23.169Z,55.97
2022-11-12T23:52:44.234Z,55.73
2022-11-12T23:55:05.319Z,55.68
2022-11-12T23:57:25.839Z,56.08
2022-11-12T23:59:46.518Z,56.12
